Time;durP1;ratioP1;P1;durP2;ratioP2;P2;SDS_P1;SDS_P2;PMS_P1;PMS_P2;Temp;Humidity;BMP_temperature;BMP_pressure;BME280_temperature;BME280_humidity;BME280_pressure;Samples;Min_cycle;Max_cycle;Signal;HPM_P1;HPM_P2
2023/05/05 00:02:13;;;;;;;2.75;1.50;;;22.20;66.30;;;;;;5029046;28;20513;-62
2023/05/05 00:04:40;;;;;;;1.60;1.50;;;22.20;66.30;;;;;;5025451;28;20220;-64
2023/05/05 00:07:06;;;;;;;1.70;1.30;;;22.20;66.20;;;;;;5023065;28;20462;-62
2023/05/05 00:09:35;;;;;;;4.50;1.60;;;22.20;66.20;;;;;;5028904;28;20455;-64
2023/05/05 00:12:01;;;;;;;2.30;1.50;;;22.20;66.20;;;;;;5030688;28;20479;-64
2023/05/05 00:14:30;;;;;;;2.33;2.10;;;22.20;66.20;;;;;;5030170;28;20455;-64
2023/05/05 00:16:57;;;;;;;2.10;1.90;;;22.20;66.20;;;;;;5028417;28;20463;-64
2023/05/05 00:19:24;;;;;;;2.40;1.73;;;22.20;66.30;;;;;;5027290;28;20466;-64
2023/05/05 00:21:51;;;;;;;2.17;1.97;;;22.20;66.30;;;;;;5027918;28;20494;-64
2023/05/05 00:24:17;;;;;;;1.80;1.70;;;22.20;66.30;;;;;;5030961;28;20998;-64
2023/05/05 00:26:45;;;;;;;1.50;1.40;;;22.20;66.30;;;;;;5030775;28;20491;-63
2023/05/05 00:29:12;;;;;;;2.23;1.80;;;22.10;66.30;;;;;;5031485;28;20504;-64
2023/05/05 00:31:38;;;;;;;1.37;1.20;;;22.10;66.30;;;;;;5029083;28;20463;-63
2023/05/05 00:34:05;;;;;;;1.93;1.70;;;22.10;66.30;;;;;;5031112;28;20471;-64
2023/05/05 00:36:32;;;;;;;2.10;1.50;;;22.10;66.30;;;;;;5025529;28;20661;-64
2023/05/05 00:38:59;;;;;;;1.20;1.10;;;22.10;66.30;;;;;;5024060;28;20459;-64
2023/05/05 00:41:26;;;;;;;1.70;1.40;;;22.10;66.30;;;;;;5029681;28;20472;-62
2023/05/05 00:43:54;;;;;;;1.47;1.37;;;22.10;66.30;;;;;;5030783;28;20463;-62
2023/05/05 00:46:24;;;;;;;1.70;1.60;;;22.10;66.40;;;;;;5028238;28;20487;-62
2023/05/05 00:48:51;;;;;;;4.70;1.67;;;22.10;66.40;;;;;;5023757;28;20558;-62
2023/05/05 00:51:19;;;;;;;1.63;1.53;;;22.10;66.40;;;;;;5028692;28;20453;-62
2023/05/05 00:53:47;;;;;;;2.45;1.55;;;22.10;67.20;;;;;;5022705;28;20471;-63
2023/05/05 00:56:15;;;;;;;1.63;1.53;;;22.00;66.30;;;;;;5030484;28;20258;-63
2023/05/05 00:58:43;;;;;;;1.40;1.27;;;22.10;66.50;;;;;;5030021;28;20565;-62
2023/05/05 01:01:12;;;;;;;2.10;1.60;;;22.00;66.40;;;;;;5030996;28;20834;-63
2023/05/05 01:03:40;;;;;;;1.63;1.52;;;22.00;66.40;;;;;;5033437;28;20491;-63
2023/05/05 01:06:14;;;;;;;1.40;1.30;;;22.00;66.40;;;;;;5031002;28;20310;-62
2023/05/05 01:08:51;;;;;;;1.43;1.33;;;22.00;66.40;;;;;;5019775;28;20232;-64
2023/05/05 01:11:23;;;;;;;2.17;2.07;;;22.00;66.40;;;;;;5028241;28;20970;-63
2023/05/05 01:13:57;;;;;;;2.17;1.98;;;22.00;66.40;;;;;;5026220;28;20444;-62
2023/05/05 01:16:28;;;;;;;2.65;1.30;;;22.00;66.40;;;;;;5026587;28;20204;-64
2023/05/05 01:19:00;;;;;;;2.53;1.58;;;22.00;66.50;;;;;;5030574;28;20623;-64
2023/05/05 01:21:31;;;;;;;1.40;1.30;;;22.00;66.40;;;;;;5030779;28;20698;-64
2023/05/05 01:24:18;;;;;;;1.88;1.58;;;22.00;66.50;;;;;;5018282;28;20463;-64
2023/05/05 01:26:57;;;;;;;1.42;1.20;;;21.90;66.40;;;;;;5025265;28;20238;-64
2023/05/05 01:30:01;;;;;;;1.97;1.60;;;21.90;66.40;;;;;;5024573;28;20243;-64
2023/05/05 01:32:32;;;;;;;2.92;1.60;;;21.90;66.40;;;;;;5020368;28;20462;-64
2023/05/05 01:35:01;;;;;;;2.60;1.93;;;21.90;66.50;;;;;;5029833;28;20207;-64
2023/05/05 01:37:34;;;;;;;1.58;1.40;;;21.90;66.50;;;;;;5029191;28;20462;-64
2023/05/05 01:40:07;;;;;;;2.03;1.83;;;21.90;66.50;;;;;;5021706;28;20290;-64
2023/05/05 01:42:34;;;;;;;1.53;1.43;;;21.90;66.50;;;;;;5029939;28;20466;-64
2023/05/05 01:45:04;;;;;;;1.77;1.53;;;21.90;66.50;;;;;;5028242;28;20459;-64
2023/05/05 01:47:33;;;;;;;1.67;1.57;;;21.90;66.60;;;;;;5022757;28;20523;-64
2023/05/05 01:50:01;;;;;;;1.70;1.60;;;21.90;66.60;;;;;;5026964;28;20462;-64
2023/05/05 01:52:29;;;;;;;1.50;1.40;;;21.90;66.60;;;;;;5029911;28;20461;-64
2023/05/05 01:54:58;;;;;;;1.60;1.50;;;21.90;66.60;;;;;;5029962;28;20447;-64
2023/05/05 01:57:26;;;;;;;1.50;1.40;;;21.80;66.50;;;;;;5028515;28;20439;-64
2023/05/05 01:59:54;;;;;;;2.22;2.03;;;21.80;66.50;;;;;;5020839;28;20458;-64
2023/05/05 02:02:22;;;;;;;1.30;1.20;;;21.80;66.50;;;;;;5027393;28;20193;-64
2023/05/05 02:04:52;;;;;;;2.60;1.70;;;21.80;66.60;;;;;;5026795;28;20978;-64
2023/05/05 02:07:20;;;;;;;1.60;1.40;;;21.80;66.60;;;;;;5028099;28;20998;-64
2023/05/05 02:09:48;;;;;;;1.38;1.27;;;21.80;66.60;;;;;;5029578;28;20943;-64
2023/05/05 02:12:16;;;;;;;1.60;1.50;;;21.80;66.60;;;;;;5029632;28;20200;-64
2023/05/05 02:14:43;;;;;;;1.30;1.10;;;21.80;66.60;;;;;;5027348;28;20457;-64
2023/05/05 02:17:12;;;;;;;1.55;1.45;;;21.80;66.60;;;;;;5025201;28;20214;-64
2023/05/05 02:19:41;;;;;;;1.40;1.30;;;21.80;66.70;;;;;;5030663;28;20192;-64
2023/05/05 02:22:11;;;;;;;1.80;1.20;;;21.70;66.60;;;;;;5027203;28;20529;-64
2023/05/05 02:24:37;;;;;;;1.33;1.20;;;21.70;66.60;;;;;;5030482;28;20459;-64
2023/05/05 02:27:08;;;;;;;1.80;1.20;;;21.80;66.70;;;;;;5035240;28;20223;-64
2023/05/05 02:29:39;;;;;;;1.80;1.70;;;21.80;66.70;;;;;;5024435;28;20223;-64
2023/05/05 02:32:09;;;;;;;1.50;1.40;;;21.70;66.60;;;;;;5027555;28;20513;-64
2023/05/05 02:34:39;;;;;;;1.73;1.30;;;21.70;66.60;;;;;;5025033;28;20458;-64
2023/05/05 02:37:12;;;;;;;2.20;2.00;;;21.70;66.60;;;;;;5025230;28;20479;-64
2023/05/05 02:39:44;;;;;;;2.20;2.00;;;21.70;66.60;;;;;;5024515;28;20459;-64
2023/05/05 02:42:16;;;;;;;1.55;1.45;;;21.70;66.70;;;;;;5029500;28;20471;-64
2023/05/05 02:44:44;;;;;;;1.30;1.17;;;21.70;66.70;;;;;;5028135;28;20246;-64
2023/05/05 02:47:11;;;;;;;1.75;1.65;;;21.70;66.70;;;;;;5027130;28;20227;-64
2023/05/05 02:49:37;;;;;;;1.52;1.40;;;21.70;66.70;;;;;;5029695;28;20196;-64
2023/05/05 02:52:06;;;;;;;1.10;1.00;;;21.70;66.80;;;;;;5026138;28;20226;-64
2023/05/05 02:54:34;;;;;;;1.70;1.60;;;21.60;66.70;;;;;;5030741;28;20270;-64
2023/05/05 02:57:01;;;;;;;1.88;1.77;;;21.70;66.80;;;;;;5026012;28;20497;-64
2023/05/05 02:59:36;;;;;;;1.30;1.20;;;21.70;66.70;;;;;;5029226;28;20211;-64
2023/05/05 03:02:12;;;;;;;1.40;1.30;;;21.70;66.80;;;;;;5026509;28;20191;-64
2023/05/05 03:04:42;;;;;;;1.80;1.70;;;21.60;66.60;;;;;;5027699;28;20458;-64
2023/05/05 03:07:13;;;;;;;1.40;1.30;;;21.60;66.70;;;;;;5028173;28;20220;-62
2023/05/05 03:09:45;;;;;;;1.70;1.60;;;21.60;66.70;;;;;;5026424;28;20192;-63
2023/05/05 03:12:16;;;;;;;1.67;1.58;;;21.60;66.70;;;;;;5032917;28;20894;-62
2023/05/05 03:14:45;;;;;;;1.52;1.42;;;21.60;66.70;;;;;;5024208;28;20204;-64
2023/05/05 03:17:14;;;;;;;1.70;1.60;;;21.60;66.80;;;;;;5025354;28;20639;-64
2023/05/05 03:19:42;;;;;;;1.20;1.10;;;21.60;66.80;;;;;;5019982;28;20191;-62
2023/05/05 03:22:09;;;;;;;1.42;1.33;;;21.60;66.80;;;;;;5026334;28;20311;-62
2023/05/05 03:24:36;;;;;;;1.77;1.67;;;21.60;66.80;;;;;;5023793;28;20200;-64
2023/05/05 03:27:04;;;;;;;1.50;1.40;;;21.60;67.70;;;;;;5030437;28;20227;-65
2023/05/05 03:29:31;;;;;;;1.60;1.50;;;21.60;66.90;;;;;;5028729;28;20517;-64
2023/05/05 03:31:59;;;;;;;1.55;1.30;;;21.60;66.80;;;;;;5033211;28;20469;-64
2023/05/05 03:34:26;;;;;;;1.50;1.40;;;21.50;66.70;;;;;;5024094;28;20211;-64
2023/05/05 03:36:53;;;;;;;1.83;1.57;;;21.50;66.80;;;;;;5030325;28;20200;-64
2023/05/05 03:39:19;;;;;;;1.90;1.25;;;21.50;66.80;;;;;;5027504;28;20466;-64
2023/05/05 03:41:46;;;;;;;1.40;1.30;;;21.50;66.90;;;;;;5028089;28;20219;-64
2023/05/05 03:44:14;;;;;;;1.27;1.17;;;21.50;66.80;;;;;;5022173;28;20214;-64
2023/05/05 03:46:41;;;;;;;1.48;1.38;;;21.50;67.70;;;;;;5028946;28;20220;-64
2023/05/05 03:49:08;;;;;;;1.52;1.40;;;21.50;66.90;;;;;;5025275;28;20196;-64
2023/05/05 03:51:35;;;;;;;1.73;1.63;;;21.50;66.90;;;;;;5028466;28;20200;-64
2023/05/05 03:54:02;;;;;;;1.60;1.50;;;21.50;66.90;;;;;;5023074;28;20672;-64
2023/05/05 03:56:29;;;;;;;1.88;1.77;;;21.50;67.00;;;;;;5031848;28;20211;-62
2023/05/05 03:58:55;;;;;;;1.40;1.30;;;21.50;66.90;;;;;;5029931;28;20207;-64
2023/05/05 04:01:23;;;;;;;1.50;1.40;;;21.50;67.00;;;;;;5031791;28;20233;-62
2023/05/05 04:03:50;;;;;;;1.52;1.42;;;21.50;67.00;;;;;;5029680;28;20204;-64
2023/05/05 04:06:17;;;;;;;2.03;1.42;;;21.50;67.00;;;;;;5031748;28;20232;-64
2023/05/05 04:08:44;;;;;;;1.90;1.80;;;21.50;67.00;;;;;;5029808;28;20204;-64
2023/05/05 04:11:11;;;;;;;2.05;1.92;;;21.40;66.90;;;;;;5032012;28;20207;-64
2023/05/05 04:13:37;;;;;;;1.92;1.83;;;21.40;66.90;;;;;;5025562;28;20575;-62
2023/05/05 04:16:04;;;;;;;1.52;1.42;;;21.40;66.90;;;;;;5021272;28;20208;-63
2023/05/05 04:18:32;;;;;;;1.50;1.40;;;21.40;67.00;;;;;;5034384;28;20199;-64
2023/05/05 04:20:59;;;;;;;1.50;1.40;;;21.40;67.00;;;;;;5028796;28;20191;-64
2023/05/05 04:23:26;;;;;;;1.40;1.30;;;21.40;67.00;;;;;;5024872;28;20223;-64
2023/05/05 04:25:52;;;;;;;1.42;1.33;;;21.40;66.90;;;;;;5031227;28;20204;-64
2023/05/05 04:28:20;;;;;;;1.20;1.10;;;21.40;66.90;;;;;;5023827;28;20196;-64
2023/05/05 04:30:46;;;;;;;1.50;1.40;;;21.40;66.90;;;;;;5017912;28;20323;-64
2023/05/05 04:33:13;;;;;;;1.35;1.25;;;21.40;67.00;;;;;;5024872;28;20674;-64
2023/05/05 04:35:41;;;;;;;1.60;1.45;;;21.40;67.00;;;;;;5029876;28;20598;-64
2023/05/05 04:38:08;;;;;;;1.55;1.45;;;21.40;67.00;;;;;;5022141;28;20200;-64
2023/05/05 04:40:39;;;;;;;2.00;1.90;;;21.40;67.00;;;;;;5027624;28;20196;-64
2023/05/05 04:43:06;;;;;;;1.60;1.38;;;21.40;67.00;;;;;;5029583;28;20638;-64
2023/05/05 04:45:33;;;;;;;1.30;1.20;;;21.30;66.90;;;;;;5014750;28;20204;-64
2023/05/05 04:47:59;;;;;;;1.80;1.60;;;21.40;67.00;;;;;;5017164;28;20231;-64
2023/05/05 04:50:26;;;;;;;1.38;1.27;;;21.40;67.10;;;;;;5028570;28;20541;-64
2023/05/05 04:52:55;;;;;;;1.40;1.30;;;21.30;67.10;;;;;;5026412;28;20258;-63
2023/05/05 04:55:21;;;;;;;1.63;1.52;;;21.30;67.00;;;;;;5022183;28;20247;-64
2023/05/05 04:57:48;;;;;;;1.45;1.35;;;21.30;67.00;;;;;;5035602;28;20211;-64
2023/05/05 05:00:16;;;;;;;1.55;1.45;;;21.30;67.80;;;;;;5026429;28;20258;-64
2023/05/05 05:02:42;;;;;;;1.63;1.45;;;21.30;67.00;;;;;;5028679;28;20242;-64
2023/05/05 05:05:10;;;;;;;1.38;1.27;;;21.30;67.00;;;;;;5029997;28;20197;-64
2023/05/05 05:07:36;;;;;;;1.50;1.40;;;21.30;67.00;;;;;;5021758;28;20220;-64
2023/05/05 05:10:05;;;;;;;1.38;1.27;;;21.30;67.00;;;;;;5025199;28;20188;-64
2023/05/05 05:12:32;;;;;;;1.33;1.23;;;21.30;67.10;;;;;;5030191;28;20833;-64
2023/05/05 05:14:59;;;;;;;1.52;1.40;;;21.30;67.10;;;;;;5019768;28;20200;-63
2023/05/05 05:17:25;;;;;;;1.17;1.08;;;21.30;67.20;;;;;;5018245;28;20204;-64
2023/05/05 05:19:54;;;;;;;1.40;1.27;;;21.30;67.10;;;;;;5019758;28;20218;-64
2023/05/05 05:22:20;;;;;;;1.40;1.30;;;21.30;67.90;;;;;;5024393;28;20751;-63
2023/05/05 05:24:47;;;;;;;1.58;1.42;;;21.30;67.00;;;;;;5025379;28;20215;-64
2023/05/05 05:27:15;;;;;;;1.50;1.40;;;21.30;67.00;;;;;;5027987;28;20223;-64
2023/05/05 05:29:42;;;;;;;1.55;1.40;;;21.40;67.10;;;;;;5035725;28;20192;-64
2023/05/05 05:32:09;;;;;;;1.20;1.10;;;21.40;67.10;;;;;;5024310;28;20254;-64
2023/05/05 05:34:35;;;;;;;1.30;1.20;;;21.40;67.00;;;;;;5029037;28;20250;-64
2023/05/05 05:37:02;;;;;;;1.50;1.40;;;21.40;67.00;;;;;;5028396;28;20204;-64
2023/05/05 05:39:29;;;;;;;1.30;1.20;;;21.40;67.00;;;;;;5025024;28;20561;-64
2023/05/05 05:41:55;;;;;;;1.30;1.20;;;21.40;67.00;;;;;;5020336;28;20200;-64
2023/05/05 05:44:23;;;;;;;1.30;1.20;;;21.50;67.20;;;;;;5024171;28;20203;-64
2023/05/05 05:46:50;;;;;;;1.50;1.10;;;21.50;67.20;;;;;;5027211;28;20220;-65
2023/05/05 05:49:17;;;;;;;1.33;1.23;;;21.50;67.20;;;;;;5027768;28;20204;-64
2023/05/05 05:51:43;;;;;;;1.20;1.10;;;21.50;67.20;;;;;;5030386;28;20196;-64
2023/05/05 05:54:10;;;;;;;1.60;1.50;;;21.50;67.20;;;;;;5030428;28;20227;-63
2023/05/05 05:56:37;;;;;;;1.30;1.20;;;21.50;67.20;;;;;;5030813;28;20593;-63
2023/05/05 05:59:06;;;;;;;2.20;1.45;;;21.50;67.10;;;;;;5026933;28;20207;-63
2023/05/05 06:01:34;;;;;;;1.50;1.40;;;21.50;67.10;;;;;;5023636;28;20200;-63
2023/05/05 06:04:01;;;;;;;1.33;1.13;;;21.50;67.10;;;;;;5031999;28;20506;-63
2023/05/05 06:06:28;;;;;;;1.63;1.40;;;21.50;67.10;;;;;;5029642;28;20911;-64
2023/05/05 06:08:54;;;;;;;1.30;1.20;;;21.60;67.10;;;;;;5028040;28;20223;-63
2023/05/05 06:11:21;;;;;;;1.70;1.60;;;21.60;67.20;;;;;;5028067;28;20553;-64
2023/05/05 06:13:48;;;;;;;2.07;1.37;;;21.60;67.10;;;;;;5023117;28;20671;-64
2023/05/05 06:16:15;;;;;;;1.60;1.50;;;21.60;67.20;;;;;;5025431;28;20463;-64
2023/05/05 06:18:43;;;;;;;3.20;1.43;;;21.60;66.80;;;;;;5029660;28;20882;-63
2023/05/05 06:21:10;;;;;;;1.50;1.20;;;21.60;66.90;;;;;;5029159;28;20533;-63
2023/05/05 06:23:36;;;;;;;1.20;1.10;;;21.70;67.00;;;;;;5026031;28;20470;-64
2023/05/05 06:26:03;;;;;;;1.00;0.90;;;21.70;67.10;;;;;;5029315;28;20470;-64
2023/05/05 06:28:30;;;;;;;1.50;1.40;;;21.70;67.10;;;;;;5012795;28;20516;-64
2023/05/05 06:30:57;;;;;;;1.40;1.30;;;21.70;67.20;;;;;;5020467;28;20466;-64
2023/05/05 06:33:23;;;;;;;1.70;1.50;;;21.70;67.10;;;;;;5022824;28;20508;-64
2023/05/05 06:35:53;;;;;;;1.30;1.20;;;21.70;67.10;;;;;;5025831;28;20196;-64
2023/05/05 06:38:20;;;;;;;1.60;1.50;;;21.70;67.10;;;;;;5023881;28;20558;-64
2023/05/05 06:40:48;;;;;;;1.53;1.43;;;21.80;67.20;;;;;;5025427;28;20819;-64
2023/05/05 06:43:15;;;;;;;2.00;1.70;;;21.80;67.10;;;;;;5028159;28;20491;-64
2023/05/05 06:45:42;;;;;;;1.50;1.40;;;21.80;67.00;;;;;;5023894;28;20473;-64
2023/05/05 06:48:08;;;;;;;1.40;1.30;;;21.80;67.00;;;;;;5025172;28;20474;-64
2023/05/05 06:50:35;;;;;;;1.20;1.10;;;21.80;67.00;;;;;;5024441;28;20797;-64
2023/05/05 06:53:03;;;;;;;1.40;1.30;;;21.80;67.00;;;;;;5022024;28;20882;-62
2023/05/05 06:55:30;;;;;;;2.10;1.67;;;21.80;66.90;;;;;;5024256;28;20458;-64
2023/05/05 06:57:57;;;;;;;1.30;1.20;;;21.80;66.90;;;;;;5024885;28;20879;-64
2023/05/05 07:00:24;;;;;;;1.50;1.40;;;21.80;66.80;;;;;;5019975;28;21076;-64
2023/05/05 07:02:51;;;;;;;2.50;1.60;;;21.80;66.90;;;;;;5025123;28;20458;-62
2023/05/05 07:05:17;;;;;;;1.30;1.10;;;21.90;67.50;;;;;;5021147;28;20465;-67
2023/05/05 07:07:51;;;;;;;1.80;1.67;;;21.90;67.40;;;;;;5026281;28;20485;-67
2023/05/05 07:10:20;;;;;;;1.97;1.47;;;21.90;67.30;;;;;;5025206;28;20546;-65
2023/05/05 07:12:46;;;;;;;3.40;1.67;;;22.00;67.60;;;;;;5025073;28;20544;-65
2023/05/05 07:15:13;;;;;;;8.13;1.70;;;22.00;67.60;;;;;;5014037;28;20521;-67
2023/05/05 07:17:40;;;;;;;3.83;1.80;;;22.00;67.80;;;;;;5018345;28;20463;-65
2023/05/05 07:20:08;;;;;;;1.97;1.87;;;22.00;67.90;;;;;;5040272;28;20446;-67
2023/05/05 07:22:35;;;;;;;2.03;1.93;;;22.00;68.00;;;;;;5032214;28;20483;-66
2023/05/05 07:25:02;;;;;;;3.37;1.90;;;22.00;68.00;;;;;;5021993;28;20459;-64
2023/05/05 07:27:31;;;;;;;2.00;1.80;;;22.10;68.10;;;;;;5019812;28;20569;-62
2023/05/05 07:29:58;;;;;;;2.70;2.17;;;22.20;68.20;;;;;;5028112;28;21213;-68
2023/05/05 07:32:25;;;;;;;2.20;2.00;;;22.20;68.40;;;;;;5032397;28;20458;-65
2023/05/05 07:34:51;;;;;;;2.03;1.93;;;22.20;69.30;;;;;;5024593;28;20466;-60
2023/05/05 07:37:18;;;;;;;2.30;2.10;;;22.20;68.60;;;;;;5020525;28;20467;-65
2023/05/05 07:39:46;;;;;;;2.50;2.07;;;22.30;68.50;;;;;;5021392;28;20478;-65
2023/05/05 07:42:12;;;;;;;2.37;1.97;;;22.30;68.40;;;;;;5030594;28;20469;-71
2023/05/05 07:44:40;;;;;;;3.30;2.00;;;22.30;68.40;;;;;;5024397;28;20458;-64
2023/05/05 07:47:07;;;;;;;2.73;2.10;;;22.40;68.70;;;;;;5026101;28;20835;-64
2023/05/05 07:49:34;;;;;;;2.50;1.80;;;22.40;68.40;;;;;;5027119;28;20465;-67
2023/05/05 07:52:01;;;;;;;2.30;1.90;;;22.40;68.40;;;;;;5031639;28;20461;-67
2023/05/05 07:54:28;;;;;;;2.70;2.50;;;22.40;68.30;;;;;;5037584;28;20461;-68
2023/05/05 07:56:56;;;;;;;2.37;2.17;;;22.40;68.10;;;;;;5026291;28;20512;-66
2023/05/05 07:59:22;;;;;;;1.87;1.77;;;22.50;68.20;;;;;;5028783;28;20473;-65
2023/05/05 08:01:50;;;;;;;2.70;2.43;;;22.50;68.20;;;;;;5029694;28;20463;-63
2023/05/05 08:04:17;;;;;;;2.23;2.03;;;22.60;68.20;;;;;;5028695;28;20855;-64
2023/05/05 08:06:44;;;;;;;2.30;2.10;;;22.50;68.10;;;;;;5038705;28;20451;-63
2023/05/05 08:09:10;;;;;;;3.30;2.10;;;22.60;68.20;;;;;;5024764;28;20484;-63
2023/05/05 08:11:37;;;;;;;2.43;2.23;;;22.60;68.40;;;;;;5026992;28;20494;-64
2023/05/05 08:14:04;;;;;;;3.37;2.30;;;22.60;68.50;;;;;;5028222;28;20469;-66
2023/05/05 08:16:30;;;;;;;3.37;3.07;;;22.60;68.50;;;;;;5031368;28;20467;-64
2023/05/05 08:18:58;;;;;;;3.40;2.10;;;22.60;68.50;;;;;;5020008;28;20471;-63
2023/05/05 08:21:26;;;;;;;2.97;2.77;;;22.60;68.40;;;;;;5023992;28;20501;-64
2023/05/05 08:23:53;;;;;;;3.00;2.70;;;22.60;68.40;;;;;;5029419;28;20963;-67
2023/05/05 08:26:21;;;;;;;2.80;1.90;;;22.70;68.30;;;;;;5031289;28;20528;-63
2023/05/05 08:28:48;;;;;;;2.03;1.83;;;22.70;68.20;;;;;;5027078;28;20478;-67
2023/05/05 08:31:15;;;;;;;2.43;2.23;;;22.70;68.10;;;;;;5019763;28;20477;-66
2023/05/05 08:33:42;;;;;;;1.97;1.87;;;22.70;68.00;;;;;;5025385;28;20455;-64
2023/05/05 08:36:11;;;;;;;2.10;1.90;;;22.70;67.90;;;;;;5025185;28;20463;-68
2023/05/05 08:38:38;;;;;;;1.93;1.73;;;22.80;67.90;;;;;;5019498;28;20462;-67
2023/05/05 08:41:06;;;;;;;3.00;2.23;;;22.80;67.80;;;;;;5031660;28;20447;-63
2023/05/05 08:43:34;;;;;;;2.40;2.20;;;22.80;67.80;;;;;;5025009;28;20471;-63
2023/05/05 08:46:02;;;;;;;2.20;2.00;;;22.80;67.70;;;;;;5027769;28;20458;-66
2023/05/05 08:48:33;;;;;;;1.87;1.77;;;22.80;67.60;;;;;;5031885;28;20478;-63
2023/05/05 08:51:04;;;;;;;2.70;2.30;;;22.80;67.60;;;;;;5023480;28;20443;-60
2023/05/05 08:53:44;;;;;;;3.00;2.00;;;22.80;67.60;;;;;;5029104;28;20457;-62
2023/05/05 08:56:14;;;;;;;2.13;1.93;;;22.80;67.60;;;;;;5027642;28;20945;-60
2023/05/05 08:58:41;;;;;;;2.20;1.80;;;22.80;67.50;;;;;;5025765;28;20476;-63
2023/05/05 09:01:09;;;;;;;1.90;1.73;;;22.80;67.50;;;;;;5028342;28;20967;-60
2023/05/05 09:03:37;;;;;;;3.10;1.70;;;22.80;67.50;;;;;;5029462;28;20528;-60
2023/05/05 09:06:04;;;;;;;4.23;2.83;;;22.80;67.50;;;;;;5030011;28;20454;-60
2023/05/05 09:08:31;;;;;;;2.30;2.10;;;22.80;67.40;;;;;;5028847;28;21184;-62
2023/05/05 09:11:01;;;;;;;2.30;2.03;;;22.80;67.30;;;;;;5030544;28;20471;-60
2023/05/05 09:13:29;;;;;;;2.07;1.80;;;22.80;67.40;;;;;;5021723;28;20494;-63
2023/05/05 09:15:56;;;;;;;2.00;1.90;;;22.80;67.30;;;;;;5023958;28;20454;-62
2023/05/05 09:18:23;;;;;;;2.13;1.93;;;22.80;67.30;;;;;;5025418;28;20471;-62
2023/05/05 09:20:50;;;;;;;2.23;2.03;;;22.80;67.30;;;;;;5029432;28;20534;-62
2023/05/05 09:23:18;;;;;;;2.67;2.30;;;22.80;67.30;;;;;;5022425;28;20482;-61
2023/05/05 09:25:46;;;;;;;2.00;1.80;;;22.80;67.30;;;;;;5016295;28;20466;-67
2023/05/05 09:28:15;;;;;;;12.13;2.23;;;22.80;67.20;;;;;;5025065;28;20483;-69
2023/05/05 09:30:43;;;;;;;5.83;2.03;;;22.80;67.20;;;;;;5023820;28;20446;-67
2023/05/05 09:33:10;;;;;;;2.20;2.00;;;22.90;67.30;;;;;;5032293;28;20455;-63
2023/05/05 09:35:51;;;;;;;1.80;1.70;;;22.90;66.90;;;;;;5020517;28;20458;-66
2023/05/05 09:38:18;;;;;;;3.47;2.00;;;22.80;66.40;;;;;;5010070;28;20464;-65
2023/05/05 09:40:47;;;;;;;5.93;1.80;;;22.80;66.40;;;;;;5027051;28;20943;-62
2023/05/05 09:43:15;;;;;;;2.73;1.93;;;22.80;66.10;;;;;;5015999;28;20454;-68
2023/05/05 09:45:43;;;;;;;4.03;1.80;;;22.80;66.00;;;;;;5007444;28;20529;-70
2023/05/05 09:48:24;;;;;;;10.73;2.13;;;22.80;66.20;;;;;;5021599;28;20470;-60
2023/05/05 09:50:51;;;;;;;4.60;1.63;;;22.90;66.30;;;;;;5024361;28;20609;-59
2023/05/05 09:53:18;;;;;;;1.80;1.50;;;22.90;66.30;;;;;;5023894;28;21138;-70
2023/05/05 09:55:53;;;;;;;2.43;2.23;;;22.90;66.50;;;;;;5033105;28;20551;-56
2023/05/05 09:58:24;;;;;;;2.03;1.60;;;23.00;66.70;;;;;;5026268;28;20502;-54
2023/05/05 10:00:52;;;;;;;2.37;1.40;;;23.00;66.70;;;;;;5018435;28;20451;-55
2023/05/05 10:03:20;;;;;;;1.43;1.33;;;23.00;66.70;;;;;;5008910;28;21093;-56
2023/05/05 10:05:49;;;;;;;1.77;1.67;;;23.10;66.80;;;;;;5027255;28;20451;-58
2023/05/05 10:08:17;;;;;;;1.80;1.70;;;23.10;66.80;;;;;;5030946;28;20573;-60
2023/05/05 10:10:50;;;;;;;2.73;1.70;;;23.10;66.90;;;;;;5023837;28;20470;-61
2023/05/05 10:13:18;;;;;;;1.50;1.40;;;23.10;66.90;;;;;;5029085;28;20532;-63
2023/05/05 10:15:49;;;;;;;1.70;1.60;;;23.10;66.90;;;;;;5018237;28;20497;-63
2023/05/05 10:18:20;;;;;;;2.17;1.50;;;23.10;67.80;;;;;;5024932;28;20544;-67
2023/05/05 10:20:50;;;;;;;3.00;1.87;;;23.10;67.00;;;;;;5023762;28;20942;-64
2023/05/05 10:23:22;;;;;;;1.63;1.53;;;23.20;67.10;;;;;;5017902;28;20872;-66
2023/05/05 10:25:53;;;;;;;1.50;1.40;;;23.20;67.10;;;;;;5020422;28;20533;-61
2023/05/05 10:28:28;;;;;;;1.90;1.60;;;23.20;67.20;;;;;;5032798;28;20475;-65
2023/05/05 10:31:00;;;;;;;1.93;1.83;;;23.20;67.20;;;;;;5019118;28;20648;-62
2023/05/05 10:33:33;;;;;;;1.70;1.30;;;23.20;66.60;;;;;;5015919;28;20483;-63
2023/05/05 10:36:04;;;;;;;1.57;1.40;;;23.20;67.10;;;;;;5023008;28;20545;-64
2023/05/05 10:38:32;;;;;;;1.53;1.43;;;23.20;67.10;;;;;;5032990;28;20468;-60
2023/05/05 10:41:00;;;;;;;3.10;1.70;;;23.20;67.20;;;;;;5038809;28;20958;-54
2023/05/05 10:43:27;;;;;;;1.83;1.73;;;23.20;67.20;;;;;;5026725;28;20462;-56
2023/05/05 10:45:56;;;;;;;2.97;1.70;;;23.20;67.10;;;;;;5028403;28;20956;-65
2023/05/05 10:48:34;;;;;;;2.17;1.30;;;23.30;67.30;;;;;;5032007;28;20480;-69
2023/05/05 10:51:11;;;;;;;2.27;1.43;;;23.20;67.30;;;;;;5023958;28;20539;-65
2023/05/05 10:53:45;;;;;;;1.63;1.53;;;23.30;67.30;;;;;;5024633;28;20500;-65
2023/05/05 10:56:20;;;;;;;2.00;1.80;;;23.30;67.50;;;;;;5027235;28;20450;-62
2023/05/05 10:58:46;;;;;;;1.60;1.50;;;23.30;67.50;;;;;;5012085;28;21085;-64
2023/05/05 11:01:28;;;;;;;2.00;1.80;;;23.30;67.60;;;;;;5012769;28;20459;-65
2023/05/05 11:04:16;;;;;;;4.23;1.70;;;23.30;67.50;;;;;;5027535;28;20463;-57
2023/05/05 11:07:16;;;;;;;1.50;1.40;;;23.30;67.60;;;;;;5026333;28;20550;-56
2023/05/05 11:09:55;;;;;;;1.47;1.37;;;23.40;67.70;;;;;;5020981;28;20483;-65
2023/05/05 11:12:22;;;;;;;2.40;2.20;;;23.40;67.70;;;;;;5026833;28;20457;-56
2023/05/05 11:15:09;;;;;;;1.50;1.27;;;23.40;67.70;;;;;;5028736;28;20458;-57
2023/05/05 11:17:47;;;;;;;1.70;1.60;;;23.40;67.70;;;;;;5016308;28;20752;-64
2023/05/05 11:20:14;;;;;;;1.70;1.60;;;23.40;67.70;;;;;;5016906;28;20462;-70
2023/05/05 11:23:23;;;;;;;1.70;1.60;;;23.40;67.80;;;;;;5026568;28;20479;-66
2023/05/05 11:25:50;;;;;;;1.60;1.50;;;23.40;67.60;;;;;;5032486;28;20466;-66
2023/05/05 11:28:18;;;;;;;1.70;1.50;;;23.40;67.70;;;;;;5029390;28;20521;-69
2023/05/05 11:31:16;;;;;;;1.50;1.40;;;23.50;67.80;;;;;;5022251;28;20462;-61
2023/05/05 11:33:44;;;;;;;1.50;1.40;;;23.50;67.70;;;;;;5032500;28;20869;-61
2023/05/05 11:36:11;;;;;;;1.50;1.20;;;23.50;67.80;;;;;;5027622;28;20827;-70
2023/05/05 11:38:59;;;;;;;2.03;1.63;;;23.50;67.80;;;;;;5025302;28;20462;-70
2023/05/05 11:41:40;;;;;;;2.57;1.27;;;23.40;67.10;;;;;;4992377;28;20469;-66
2023/05/05 11:44:11;;;;;;;1.50;1.40;;;23.40;66.90;;;;;;5012454;28;20549;-76
2023/05/05 11:46:40;;;;;;;2.87;1.90;;;23.40;66.90;;;;;;5011312;28;20472;-65
2023/05/05 11:49:08;;;;;;;1.43;1.30;;;23.40;67.20;;;;;;5014732;28;20482;-66
2023/05/05 11:51:36;;;;;;;1.60;1.50;;;23.40;67.50;;;;;;5027248;28;20963;-66
2023/05/05 11:54:03;;;;;;;1.97;1.77;;;23.30;67.40;;;;;;5018841;28;20876;-63
2023/05/05 11:56:29;;;;;;;2.63;1.50;;;23.40;67.50;;;;;;5032489;28;20459;-59
2023/05/05 11:59:09;;;;;;;2.40;1.70;;;23.40;67.70;;;;;;5023556;28;20883;-69
2023/05/05 12:01:39;;;;;;;1.80;1.70;;;23.40;68.50;;;;;;5008995;28;20548;-67
2023/05/05 12:04:08;;;;;;;2.77;2.40;;;23.40;67.60;;;;;;5025886;28;20459;-64
2023/05/05 12:06:34;;;;;;;2.23;1.43;;;23.40;67.80;;;;;;5027967;28;20504;-71
2023/05/05 12:09:01;;;;;;;1.80;1.57;;;23.40;67.90;;;;;;5019751;28;20490;-65
2023/05/05 12:11:28;;;;;;;2.43;1.70;;;23.40;67.60;;;;;;5030554;28;21120;-62
2023/05/05 12:14:09;;;;;;;2.47;1.80;;;23.40;67.70;;;;;;5032967;28;20555;-65
2023/05/05 12:16:35;;;;;;;3.70;1.67;;;23.40;67.60;;;;;;5018984;28;20610;-65
2023/05/05 12:19:06;;;;;;;3.60;1.53;;;23.50;67.70;;;;;;5035329;28;20466;-64
2023/05/05 12:21:37;;;;;;;1.97;1.80;;;23.50;67.60;;;;;;5029431;28;20925;-68
2023/05/05 12:24:04;;;;;;;1.60;1.50;;;23.50;67.60;;;;;;5022843;28;20465;-68
2023/05/05 12:26:31;;;;;;;1.37;1.27;;;23.50;67.50;;;;;;5028723;28;20514;-67
2023/05/05 12:28:59;;;;;;;2.30;1.50;;;23.60;67.60;;;;;;5034563;28;21220;-65
2023/05/05 12:31:34;;;;;;;2.00;1.70;;;23.60;67.60;;;;;;5014298;28;20477;-63
2023/05/05 12:34:02;;;;;;;1.77;1.63;;;23.60;67.60;;;;;;5034259;28;20470;-66
2023/05/05 12:36:29;;;;;;;2.30;2.10;;;23.60;67.70;;;;;;5032364;28;20466;-64
2023/05/05 12:38:57;;;;;;;2.00;1.77;;;23.50;67.50;;;;;;5020667;28;20552;-65
2023/05/05 12:41:24;;;;;;;2.00;1.53;;;23.50;67.50;;;;;;5027193;28;20495;-63
2023/05/05 12:43:55;;;;;;;1.70;1.60;;;23.50;67.60;;;;;;5028929;28;20812;-61
2023/05/05 12:46:22;;;;;;;1.90;1.80;;;23.60;67.70;;;;;;5017357;28;20588;-63
2023/05/05 12:49:00;;;;;;;5.20;1.50;;;23.60;67.70;;;;;;5027065;28;20486;-57
2023/05/05 12:51:27;;;;;;;1.70;1.50;;;23.60;67.70;;;;;;5031240;28;20465;-65
2023/05/05 12:54:04;;;;;;;4.40;1.80;;;23.60;67.60;;;;;;5017199;28;20470;-65
2023/05/05 12:56:32;;;;;;;2.03;1.53;;;23.60;67.70;;;;;;5026058;28;20458;-64
2023/05/05 12:58:59;;;;;;;1.67;1.57;;;23.60;67.70;;;;;;5033782;28;20477;-71